Time;durP1;ratioP1;P1;durP2;ratioP2;P2;SDS_P1;SDS_P2;PMS_P1;PMS_P2;Temp;Humidity;BMP_temperature;BMP_pressure;BME280_temperature;BME280_humidity;BME280_pressure;Samples;Min_cycle;Max_cycle;Signal;HPM_P1;HPM_P2
2022/01/07 00:01:21;;;;;;;21.57;13.83;;;;;;;7.59;100.00;99299.50;5049464;28;20201;-62
2022/01/07 00:03:48;;;;;;;18.43;12.90;;;;;;;7.72;100.00;99307.84;5049899;28;20197;-62
2022/01/07 00:06:15;;;;;;;18.53;13.43;;;;;;;7.69;100.00;99309.63;5049661;28;20657;-61
2022/01/07 00:08:42;;;;;;;18.17;13.47;;;;;;;7.69;100.00;99319.97;5049573;28;20193;-62
2022/01/07 00:11:09;;;;;;;17.13;12.67;;;;;;;7.74;100.00;99325.91;5049381;28;20283;-63
2022/01/07 00:13:38;;;;;;;18.10;12.33;;;;;;;7.76;100.00;99332.75;5049582;28;20197;-59
2022/01/07 00:16:05;;;;;;;15.67;12.03;;;;;;;7.71;100.00;99334.56;5049668;28;20203;-62
2022/01/07 00:18:32;;;;;;;15.10;11.30;;;;;;;7.72;100.00;99325.94;5049659;28;20192;-62
2022/01/07 00:20:59;;;;;;;17.80;12.03;;;;;;;7.62;100.00;99339.91;5049711;28;20580;-62
2022/01/07 00:23:26;;;;;;;17.03;11.83;;;;;;;7.57;100.00;99341.72;5049367;28;20279;-62
2022/01/07 00:25:53;;;;;;;16.27;11.70;;;;;;;7.55;100.00;99325.44;5049456;28;20288;-63
2022/01/07 00:28:20;;;;;;;17.67;10.77;;;;;;;7.62;100.00;99339.91;5049765;28;20350;-62
2022/01/07 00:30:49;;;;;;;12.00;10.73;;;;;;;7.53;100.00;99353.00;5049731;28;20610;-62
2022/01/07 00:33:16;;;;;;;19.87;11.90;;;;;;;7.56;100.00;99355.53;5049321;28;20224;-61
2022/01/07 00:35:43;;;;;;;13.23;11.07;;;;;;;7.54;100.00;99368.47;5049389;28;20232;-61
2022/01/07 00:38:10;;;;;;;14.90;10.93;;;;;;;7.45;100.00;99362.66;5049365;28;20207;-62
2022/01/07 00:40:37;;;;;;;25.17;11.60;;;;;;;7.38;100.00;99369.63;5049226;28;20197;-63
2022/01/07 00:43:04;;;;;;;15.23;10.43;;;;;;;7.22;100.00;99348.41;5049521;28;20272;-59
2022/01/07 00:45:32;;;;;;;12.27;10.60;;;;;;;7.50;100.00;99373.72;5049373;28;20192;-62
2022/01/07 00:48:00;;;;;;;15.33;10.17;;;;;;;7.42;100.00;99362.69;5049419;28;20201;-63
2022/01/07 00:50:29;;;;;;;12.40;10.40;;;;;;;7.46;100.00;99372.06;5049286;28;20207;-59
2022/01/07 00:52:56;;;;;;;11.93;10.23;;;;;;;7.42;100.00;99384.19;5049221;28;20316;-63
2022/01/07 00:55:26;;;;;;;14.67;10.37;;;;;;;7.41;100.00;99392.81;5049528;28;20192;-63
2022/01/07 00:57:53;;;;;;;12.97;10.20;;;;;;;7.38;100.00;99389.44;5049481;28;20251;-62
2022/01/07 01:00:23;;;;;;;14.70;10.53;;;;;;;7.29;100.00;99393.91;5052956;28;20196;-60
2022/01/07 01:02:50;;;;;;;14.17;11.17;;;;;;;7.21;100.00;99385.44;5052905;28;20197;-60
2022/01/07 01:05:19;;;;;;;16.57;10.83;;;;;;;7.26;100.00;99380.19;5052676;28;20193;-62
2022/01/07 01:07:47;;;;;;;15.00;10.27;;;;;;;7.22;100.00;99396.63;5052903;28;20201;-61
2022/01/07 01:10:16;;;;;;;15.60;10.07;;;;;;;7.17;100.00;99394.09;5052791;28;20591;-61
2022/01/07 01:12:44;;;;;;;19.73;11.13;;;;;;;7.24;100.00;99395.69;5052442;28;20217;-61
2022/01/07 01:15:14;;;;;;;13.23;10.23;;;;;;;7.23;100.00;99401.72;5052549;28;20585;-62
2022/01/07 01:17:42;;;;;;;14.30;10.70;;;;;;;7.18;100.00;99398.38;5052483;28;20203;-62
2022/01/07 01:20:12;;;;;;;13.87;9.67;;;;;;;7.17;100.00;99401.84;5052753;28;20205;-63
2022/01/07 01:22:41;;;;;;;14.10;9.80;;;;;;;7.15;100.00;99408.75;5052543;28;20200;-60
2022/01/07 01:25:08;;;;;;;13.97;10.03;;;;;;;7.03;100.00;99408.97;5052427;28;20577;-62
2022/01/07 01:27:36;;;;;;;13.20;10.37;;;;;;;6.97;100.00;99406.50;5052481;28;20201;-59
2022/01/07 01:30:05;;;;;;;13.97;10.80;;;;;;;6.89;100.00;99385.94;5052543;28;20203;-62
2022/01/07 01:32:32;;;;;;;15.03;10.50;;;;;;;7.09;100.00;99415.75;5052299;28;20220;-63
2022/01/07 01:34:59;;;;;;;13.90;10.83;;;;;;;7.14;100.00;99404.47;5052380;28;20622;-62
2022/01/07 01:37:29;;;;;;;14.17;10.73;;;;;;;7.05;100.00;99389.16;5052479;28;20279;-63
2022/01/07 01:39:58;;;;;;;14.70;10.50;;;;;;;7.01;100.00;99402.09;5052391;28;20232;-60
2022/01/07 01:42:25;;;;;;;11.53;9.90;;;;;;;7.07;100.00;99423.53;5052238;28;20189;-60
2022/01/07 01:44:52;;;;;;;10.27;8.67;;;;;;;7.12;100.00;99418.28;5051956;28;20233;-60
2022/01/07 01:47:19;;;;;;;10.30;8.97;;;;;;;7.13;100.00;99418.25;5051880;28;20306;-60
2022/01/07 01:49:46;;;;;;;12.30;9.27;;;;;;;7.13;100.00;99407.94;5052139;28;20193;-59
2022/01/07 01:52:13;;;;;;;15.07;9.97;;;;;;;7.02;100.00;99394.34;5051667;28;20216;-59
2022/01/07 01:54:40;;;;;;;11.60;9.73;;;;;;;7.24;100.00;99416.34;5052087;28;20583;-63
2022/01/07 01:57:08;;;;;;;20.00;9.37;;;;;;;7.21;100.00;99413.84;5051805;28;20288;-60
2022/01/07 01:59:35;;;;;;;13.33;9.30;;;;;;;7.22;100.00;99412.94;5051712;28;20218;-61
2022/01/07 02:02:02;;;;;;;11.40;8.90;;;;;;;7.26;100.00;99418.91;5051878;28;20688;-59
2022/01/07 02:04:29;;;;;;;14.63;9.00;;;;;;;7.24;100.00;99407.75;5052025;28;20204;-63
2022/01/07 02:06:57;;;;;;;11.53;9.30;;;;;;;7.30;100.00;99420.56;5051808;28;20246;-62
2022/01/07 02:09:31;;;;;;;14.33;9.17;;;;;;;7.18;100.00;99398.38;5051144;28;20232;-61
2022/01/07 02:11:58;;;;;;;11.50;8.87;;;;;;;7.26;100.00;99421.47;5051501;28;20238;-62
2022/01/07 02:14:26;;;;;;;11.03;8.53;;;;;;;7.25;100.00;99418.03;5051574;28;20201;-61
2022/01/07 02:16:53;;;;;;;10.20;8.23;;;;;;;7.18;100.00;99408.72;5051589;28;20711;-63
2022/01/07 02:19:20;;;;;;;11.27;8.77;;;;;;;7.28;100.00;99425.75;5051409;28;20196;-62
2022/01/07 02:21:48;;;;;;;11.47;8.83;;;;;;;7.16;100.00;99433.69;5051421;28;20689;-62
2022/01/07 02:24:15;;;;;;;11.77;9.57;;;;;;;7.08;100.00;99421.78;5051150;28;20285;-62
2022/01/07 02:26:42;;;;;;;13.33;9.43;;;;;;;7.16;100.00;99438.84;5051262;28;20201;-62
2022/01/07 02:29:10;;;;;;;13.37;9.57;;;;;;;7.18;100.00;99444.84;5051482;28;20204;-59
2022/01/07 02:31:36;;;;;;;11.20;10.00;;;;;;;7.19;100.00;99449.13;5051099;28;20203;-62
2022/01/07 02:34:03;;;;;;;13.67;9.93;;;;;;;7.22;100.00;99448.25;5050796;28;20216;-62
2022/01/07 02:36:30;;;;;;;13.73;9.50;;;;;;;7.25;100.00;99459.34;5049711;28;20228;-61
2022/01/07 02:38:59;;;;;;;13.80;10.13;;;;;;;7.21;100.00;99457.72;5049812;28;20197;-59
2022/01/07 02:41:26;;;;;;;11.83;8.63;;;;;;;7.17;100.00;99460.34;5050967;28;20284;-60
2022/01/07 02:43:53;;;;;;;13.00;9.07;;;;;;;6.97;100.00;99447.78;5050902;28;20192;-60
2022/01/07 02:46:20;;;;;;;12.47;9.53;;;;;;;7.00;100.00;99449.47;5050914;28;20192;-61
2022/01/07 02:48:47;;;;;;;11.20;9.13;;;;;;;7.08;100.00;99466.53;5050757;28;20200;-61
2022/01/07 02:51:14;;;;;;;10.37;8.90;;;;;;;6.99;100.00;99464.09;5050763;28;20299;-59
2022/01/07 02:53:41;;;;;;;13.73;9.03;;;;;;;6.97;100.00;99464.97;5050561;28;20242;-59
2022/01/07 02:56:11;;;;;;;10.60;8.90;;;;;;;6.90;100.00;99447.00;5050616;28;20229;-62
2022/01/07 02:58:38;;;;;;;11.93;8.83;;;;;;;6.99;100.00;99451.19;5050981;28;20200;-60
2022/01/07 03:01:08;;;;;;;10.93;9.27;;;;;;;7.06;100.00;99462.25;5050589;28;20573;-60
2022/01/07 03:03:34;;;;;;;10.30;8.37;;;;;;;7.06;100.00;99470.84;5050535;28;20193;-62
2022/01/07 03:06:01;;;;;;;14.43;9.20;;;;;;;7.13;100.00;99477.59;5050705;28;20585;-62
2022/01/07 03:08:28;;;;;;;14.20;8.37;;;;;;;7.07;100.00;99471.72;5050588;28;20207;-62
2022/01/07 03:10:55;;;;;;;11.80;9.00;;;;;;;7.05;100.00;99478.63;5050585;28;20218;-63
2022/01/07 03:13:23;;;;;;;12.30;9.17;;;;;;;7.05;100.00;99482.03;5050135;28;20220;-60
2022/01/07 03:15:50;;;;;;;12.03;9.70;;;;;;;7.16;100.00;99487.91;5050250;28;20199;-60
2022/01/07 03:18:17;;;;;;;9.80;8.47;;;;;;;7.12;100.00;99483.66;5050190;28;20211;-62
2022/01/07 03:20:44;;;;;;;9.33;8.37;;;;;;;7.14;100.00;99491.38;5049955;28;20202;-61
2022/01/07 03:23:13;;;;;;;10.07;8.17;;;;;;;7.19;100.00;99495.59;5049645;28;20228;-63
2022/01/07 03:25:41;;;;;;;12.23;8.63;;;;;;;7.23;100.00;99504.13;5050134;28;20219;-60
2022/01/07 03:28:10;;;;;;;11.03;9.30;;;;;;;7.21;100.00;99503.31;5050378;28;20197;-61
2022/01/07 03:30:39;;;;;;;12.53;9.13;;;;;;;7.25;100.00;99502.38;5050265;28;20673;-62
2022/01/07 03:33:07;;;;;;;13.40;8.93;;;;;;;7.07;100.00;99490.63;5049916;28;20636;-61
2022/01/07 03:35:34;;;;;;;11.70;8.97;;;;;;;7.25;100.00;99495.50;5050168;28;20225;-60
2022/01/07 03:38:01;;;;;;;11.57;9.10;;;;;;;7.31;100.00;99515.22;5050427;28;20193;-60
2022/01/07 03:40:28;;;;;;;12.17;9.07;;;;;;;7.28;100.00;99515.25;5050167;28;20573;-60
2022/01/07 03:42:56;;;;;;;10.47;8.33;;;;;;;7.24;100.00;99517.00;5049915;28;20211;-60
2022/01/07 03:45:23;;;;;;;12.00;8.77;;;;;;;7.23;100.00;99517.03;5049928;28;20585;-60
2022/01/07 03:47:53;;;;;;;10.23;9.10;;;;;;;7.15;100.00;99524.91;5049873;28;20586;-60
2022/01/07 03:50:25;;;;;;;10.33;8.67;;;;;;;7.06;100.00;99512.13;5049954;28;20201;-60
2022/01/07 03:52:53;;;;;;;12.73;9.17;;;;;;;7.27;100.00;99535.06;5049935;28;20708;-62
2022/01/07 03:55:22;;;;;;;15.07;9.20;;;;;;;7.32;100.00;99541.88;5049843;28;20213;-62
2022/01/07 03:57:49;;;;;;;10.30;8.73;;;;;;;7.19;100.00;99536.03;5050207;28;20206;-61
2022/01/07 04:00:18;;;;;;;11.50;8.97;;;;;;;7.15;100.00;99552.44;5050728;28;20228;-60
2022/01/07 04:02:46;;;;;;;15.00;9.80;;;;;;;7.10;100.00;99555.09;5069844;28;20215;-63
2022/01/07 04:05:16;;;;;;;12.53;9.60;;;;;;;7.13;100.00;99556.75;5069023;28;20196;-62
2022/01/07 04:07:43;;;;;;;12.70;9.23;;;;;;;7.19;100.00;99548.94;5066826;28;20199;-60
2022/01/07 04:10:10;;;;;;;10.57;8.30;;;;;;;7.12;100.00;99545.59;5068078;28;20223;-60
2022/01/07 04:12:37;;;;;;;14.90;9.67;;;;;;;7.17;100.00;99556.72;5068087;28;20207;-62
2022/01/07 04:15:08;;;;;;;12.53;9.33;;;;;;;7.19;100.00;99562.72;5068272;28;20365;-60
2022/01/07 04:17:36;;;;;;;11.67;8.87;;;;;;;7.10;100.00;99547.38;5068296;28;20280;-62
2022/01/07 04:20:05;;;;;;;13.63;8.50;;;;;;;7.19;100.00;99562.72;5068280;28;20196;-63
2022/01/07 04:22:34;;;;;;;13.60;8.90;;;;;;;7.08;100.00;99562.00;5068472;28;20199;-63
2022/01/07 04:25:02;;;;;;;13.20;9.57;;;;;;;7.02;100.00;99566.38;5068949;28;20223;-60
2022/01/07 04:27:29;;;;;;;12.73;8.63;;;;;;;7.10;100.00;99573.19;5067877;28;20195;-60
2022/01/07 04:29:56;;;;;;;13.93;8.43;;;;;;;6.86;100.00;99547.69;5068256;28;20196;-63
2022/01/07 04:32:23;;;;;;;11.37;8.87;;;;;;;7.03;100.00;99573.25;5068709;28;20665;-61
2022/01/07 04:34:50;;;;;;;12.50;8.70;;;;;;;6.99;100.00;99577.63;5072494;28;20637;-60
2022/01/07 04:37:17;;;;;;;13.10;9.23;;;;;;;6.97;100.00;99570.78;5071979;28;20216;-60
2022/01/07 04:39:45;;;;;;;10.97;8.97;;;;;;;6.95;100.00;99578.53;5072032;28;20203;-63
2022/01/07 04:42:12;;;;;;;10.23;8.60;;;;;;;6.98;100.00;99575.91;5071922;28;20200;-60
2022/01/07 04:44:40;;;;;;;13.87;8.53;;;;;;;6.70;100.00;99548.75;5072032;28;20744;-62
2022/01/07 04:47:07;;;;;;;10.97;7.97;;;;;;;6.90;100.00;99581.16;5069696;28;20196;-63
2022/01/07 04:49:35;;;;;;;9.93;8.43;;;;;;;6.96;100.00;99571.66;5071752;28;20200;-61
2022/01/07 04:52:02;;;;;;;16.10;8.57;;;;;;;7.04;100.00;99593.03;5071618;28;20585;-63
2022/01/07 04:54:29;;;;;;;12.23;7.83;;;;;;;7.03;100.00;99591.31;5071323;28;20255;-61
2022/01/07 04:56:58;;;;;;;10.70;8.07;;;;;;;7.04;100.00;99595.63;5071771;28;20222;-62
2022/01/07 04:59:25;;;;;;;12.20;8.17;;;;;;;7.11;100.00;99603.25;5068580;28;20196;-61
2022/01/07 05:01:54;;;;;;;13.23;8.40;;;;;;;7.08;100.00;99605.03;5071544;28;20214;-61
2022/01/07 05:04:21;;;;;;;12.13;8.37;;;;;;;7.11;100.00;99610.97;5071212;28;20196;-60
2022/01/07 05:06:48;;;;;;;13.00;8.70;;;;;;;7.07;100.00;99617.09;5071423;28;20211;-61
2022/01/07 05:09:17;;;;;;;12.50;8.23;;;;;;;7.07;100.00;99608.50;5072041;28;20250;-62
2022/01/07 05:11:44;;;;;;;11.83;8.70;;;;;;;7.10;100.00;99627.38;5072557;28;20200;-61
2022/01/07 05:14:13;;;;;;;12.97;8.33;;;;;;;7.02;100.00;99626.59;5072467;28;20223;-63
2022/01/07 05:16:40;;;;;;;13.63;8.17;;;;;;;6.97;100.00;99627.53;5072234;28;20196;-64
2022/01/07 05:19:08;;;;;;;12.23;8.13;;;;;;;6.96;100.00;99629.28;5072453;28;20206;-63
2022/01/07 05:21:35;;;;;;;11.47;8.40;;;;;;;6.95;100.00;99639.59;5072563;28;20203;-64
2022/01/07 05:24:03;;;;;;;11.07;8.67;;;;;;;6.87;100.00;99624.22;5055789;28;20216;-64
2022/01/07 05:26:30;;;;;;;13.83;9.07;;;;;;;6.79;100.00;99641.50;5051892;28;20609;-62
2022/01/07 05:28:57;;;;;;;12.97;8.23;;;;;;;6.76;100.00;99645.00;5065795;28;20227;-60
2022/01/07 05:31:27;;;;;;;11.57;8.73;;;;;;;6.75;100.00;99652.75;5071724;28;20242;-61
2022/01/07 05:33:55;;;;;;;10.13;8.43;;;;;;;6.72;100.00;99652.78;5070848;28;20807;-60
2022/01/07 05:36:22;;;;;;;12.00;8.87;;;;;;;6.77;100.00;99662.16;5070138;28;20236;-61
2022/01/07 05:38:50;;;;;;;10.63;8.73;;;;;;;6.78;100.00;99663.84;5070840;28;20227;-60
2022/01/07 05:41:18;;;;;;;12.27;8.83;;;;;;;6.73;100.00;99667.38;5070145;28;20211;-64
2022/01/07 05:43:45;;;;;;;10.77;8.90;;;;;;;6.48;100.00;99634.09;5071064;28;20242;-60
2022/01/07 05:46:14;;;;;;;13.40;9.10;;;;;;;6.60;100.00;99658.91;5070550;28;20226;-60
2022/01/07 05:48:43;;;;;;;17.80;9.53;;;;;;;6.71;100.00;99682.00;5070746;28;20220;-60
2022/01/07 05:51:10;;;;;;;13.13;10.03;;;;;;;6.61;100.00;99676.09;5070997;28;20312;-63
2022/01/07 05:53:37;;;;;;;15.43;8.83;;;;;;;6.63;100.00;99676.09;5071341;28;20246;-61
2022/01/07 05:56:05;;;;;;;14.90;9.07;;;;;;;6.43;100.00;99646.19;5071300;28;20247;-63
2022/01/07 05:58:33;;;;;;;13.73;8.87;;;;;;;6.57;100.00;99674.41;5071404;28;20266;-62
2022/01/07 06:01:01;;;;;;;14.00;9.03;;;;;;;6.58;100.00;99670.97;5070945;28;20222;-63
2022/01/07 06:03:28;;;;;;;16.60;11.27;;;;;;;6.68;100.00;99671.72;5070150;28;20609;-63
2022/01/07 06:05:56;;;;;;;20.07;10.77;;;;;;;6.67;100.00;99667.44;5070810;28;20226;-63
2022/01/07 06:08:23;;;;;;;15.60;11.03;;;;;;;6.72;100.00;99668.25;5071170;28;20636;-63
2022/01/07 06:10:50;;;;;;;15.17;10.33;;;;;;;6.79;100.00;99670.72;5070517;28;20223;-63
2022/01/07 06:13:17;;;;;;;13.60;9.93;;;;;;;6.76;100.00;99675.94;5070380;28;20220;-60
2022/01/07 06:15:44;;;;;;;16.03;9.40;;;;;;;6.78;100.00;99673.31;5070595;28;20216;-64
2022/01/07 06:18:11;;;;;;;12.50;8.40;;;;;;;6.80;100.00;99671.59;5070089;28;20277;-64
2022/01/07 06:20:38;;;;;;;14.63;9.57;;;;;;;6.89;100.00;99681.78;5071310;28;20251;-61
2022/01/07 06:23:06;;;;;;;15.63;8.53;;;;;;;6.96;100.00;99678.28;5070446;28;20222;-63
2022/01/07 06:25:33;;;;;;;14.33;9.83;;;;;;;6.93;100.00;99693.81;5070466;28;20215;-61
2022/01/07 06:28:00;;;;;;;14.77;8.63;;;;;;;6.96;100.00;99691.19;5070031;28;20224;-61
2022/01/07 06:30:27;;;;;;;12.40;8.73;;;;;;;6.97;100.00;99689.47;5069908;28;20299;-60
2022/01/07 06:32:54;;;;;;;13.57;9.73;;;;;;;7.01;100.00;99694.56;5067097;28;20295;-61
2022/01/07 06:35:21;;;;;;;13.97;9.03;;;;;;;7.07;100.00;99694.50;5069575;28;20236;-61
2022/01/07 06:37:48;;;;;;;15.27;10.03;;;;;;;6.97;100.00;99680.00;5069906;28;20220;-64
2022/01/07 06:40:17;;;;;;;18.67;13.17;;;;;;;7.15;100.00;99708.16;5067580;28;20242;-63
2022/01/07 06:42:44;;;;;;;20.20;13.37;;;;;;;7.29;100.00;99708.00;5070140;28;20216;-63
2022/01/07 06:45:11;;;;;;;22.43;13.23;;;;;;;7.31;100.00;99695.09;5070198;28;20259;-59
2022/01/07 06:47:38;;;;;;;17.00;11.20;;;;;;;7.51;100.00;99719.75;5069780;28;20230;-60
2022/01/07 06:50:06;;;;;;;15.73;9.97;;;;;;;7.62;100.00;99722.22;5069725;28;20665;-60
2022/01/07 06:52:33;;;;;;;11.80;8.77;;;;;;;7.70;100.00;99720.38;5069368;28;20226;-60
2022/01/07 06:55:00;;;;;;;12.73;8.83;;;;;;;7.74;100.00;99722.03;5069703;28;21015;-61
2022/01/07 06:57:29;;;;;;;19.47;12.43;;;;;;;7.79;100.00;99722.00;5068502;28;20226;-60
2022/01/07 06:59:55;;;;;;;15.67;10.50;;;;;;;7.92;100.00;99726.94;5070112;28;20722;-60
2022/01/07 07:02:22;;;;;;;28.97;17.77;;;;;;;7.97;100.00;99722.56;5068994;28;20319;-63
2022/01/07 07:04:49;;;;;;;17.33;11.80;;;;;;;8.00;100.00;99719.94;5070087;28;20226;-64
2022/01/07 07:07:16;;;;;;;19.60;10.43;;;;;;;7.94;100.00;99717.44;5069409;28;20230;-64
2022/01/07 07:09:44;;;;;;;14.40;9.53;;;;;;;7.93;100.00;99718.31;5069633;28;20223;-63
2022/01/07 07:12:13;;;;;;;12.53;8.67;;;;;;;7.94;100.00;99722.59;5069145;28;20231;-64
2022/01/07 07:14:41;;;;;;;16.10;9.33;;;;;;;7.94;100.00;99703.66;5069917;28;20232;-64
2022/01/07 07:17:09;;;;;;;14.87;9.73;;;;;;;8.09;100.00;99724.09;5068937;28;20224;-64
2022/01/07 07:19:36;;;;;;;16.43;10.00;;;;;;;8.05;100.00;99719.00;5069855;28;20234;-64
2022/01/07 07:22:03;;;;;;;15.70;10.53;;;;;;;8.08;100.00;99721.53;5069467;28;20222;-64
2022/01/07 07:24:30;;;;;;;15.63;10.60;;;;;;;8.25;100.00;99730.72;5069559;28;20212;-61
2022/01/07 07:26:57;;;;;;;16.60;11.80;;;;;;;8.28;100.00;99724.66;5069729;28;20228;-63
2022/01/07 07:29:24;;;;;;;15.27;11.03;;;;;;;7.93;100.00;99700.22;5069523;28;20218;-61
2022/01/07 07:31:56;;;;;;;18.97;11.30;;;;;;;8.16;100.00;99720.53;5069066;28;20252;-60
2022/01/07 07:37:15;;;;;;;15.07;10.80;;;;;;;8.32;100.00;99727.22;5055520;28;20277;-65
2022/01/07 07:39:42;;;;;;;20.07;13.43;;;;;;;8.32;100.00;99732.38;5069751;28;20243;-65
2022/01/07 07:42:09;;;;;;;22.60;15.83;;;;;;;8.39;100.00;99733.13;5069397;28;20223;-64
2022/01/07 07:44:36;;;;;;;22.40;13.43;;;;;;;8.47;100.00;99736.44;5069330;28;20215;-63
2022/01/07 07:47:06;;;;;;;19.70;12.17;;;;;;;8.48;100.00;99730.38;5068762;28;20609;-64
2022/01/07 07:49:33;;;;;;;34.47;12.00;;;;;;;8.56;100.00;99728.53;5069264;28;20212;-64
2022/01/07 07:52:00;;;;;;;20.90;10.77;;;;;;;8.52;100.00;99728.63;5069257;28;20228;-65
2022/01/07 07:54:27;;;;;;;16.27;10.13;;;;;;;8.55;100.00;99731.16;5068977;28;20259;-66
2022/01/07 07:56:57;;;;;;;15.27;9.37;;;;;;;8.57;100.00;99738.00;5069642;28;20683;-63
2022/01/07 07:59:24;;;;;;;13.47;9.03;;;;;;;8.54;100.00;99740.66;5069153;28;20219;-65
2022/01/07 08:01:51;;;;;;;15.53;9.83;;;;;;;8.52;100.00;99715.69;5068963;28;20281;-64
2022/01/07 08:04:21;;;;;;;15.80;10.47;;;;;;;8.71;100.00;99748.94;5068974;28;21040;-62
2022/01/07 08:06:49;;;;;;;15.20;9.67;;;;;;;8.91;100.00;99740.00;5066286;28;20221;-62
2022/01/07 08:09:16;;;;;;;16.40;9.60;;;;;;;8.99;100.00;99745.88;5052783;28;20302;-62
2022/01/07 08:11:51;;;;;;;39.57;11.70;;;;;;;9.08;100.00;99749.16;5052245;28;20260;-63
2022/01/07 08:17:04;;;;;;;25.13;12.33;;;;;;;9.25;100.00;99737.63;5052337;28;20362;-63
2022/01/07 08:19:32;;;;;;;25.17;11.57;;;;;;;9.32;100.00;99744.38;5052751;28;20219;-63
2022/01/07 08:22:00;;;;;;;28.27;11.70;;;;;;;9.43;99.92;99738.09;5052685;28;20220;-63
2022/01/07 08:24:27;;;;;;;27.03;13.30;;;;;;;9.50;100.00;99735.34;5052428;28;20212;-63
2022/01/07 08:26:54;;;;;;;25.97;13.00;;;;;;;9.63;99.35;99727.28;5052767;28;20223;-63
2022/01/07 08:29:24;;;;;;;27.87;12.83;;;;;;;9.55;98.15;99729.22;5052327;28;20224;-61
2022/01/07 08:34:55;;;;;;;14.87;10.63;;;;;;;9.45;98.36;99733.75;5052430;28;20235;-61
2022/01/07 08:37:27;;;;;;;19.97;10.60;;;;;;;9.42;98.26;99736.38;5072311;28;20238;-60
2022/01/07 08:39:55;;;;;;;14.13;10.77;;;;;;;9.52;97.95;99739.63;5072362;28;20303;-60
2022/01/07 08:42:23;;;;;;;12.60;10.33;;;;;;;9.59;97.25;99732.59;5072726;28;20738;-60
2022/01/07 08:44:53;;;;;;;17.90;11.17;;;;;;;9.69;97.53;99739.28;5071623;28;20310;-61
2022/01/07 08:47:21;;;;;;;22.50;11.03;;;;;;;9.72;97.13;99731.41;5059232;28;20215;-61
2022/01/07 08:49:50;;;;;;;17.70;10.90;;;;;;;9.76;96.95;99731.34;5066378;28;20226;-60
2022/01/07 08:52:17;;;;;;;17.52;12.00;;;;;;;9.71;97.24;99730.56;5051072;28;20434;-60
2022/01/07 08:54:44;;;;;;;13.40;10.97;;;;;;;9.85;97.08;99730.28;5068468;28;20699;-60
2022/01/07 08:57:11;;;;;;;18.00;9.67;;;;;;;10.03;96.72;99729.03;5072148;28;20306;-60
2022/01/07 08:59:38;;;;;;;13.67;10.50;;;;;;;10.01;96.92;99730.78;5071494;28;20228;-60
2022/01/07 09:02:05;;;;;;;21.80;10.70;;;;;;;10.18;96.30;99723.47;5071966;28;20682;-60
2022/01/07 09:04:32;;;;;;;14.07;9.97;;;;;;;10.26;95.46;99725.91;5069326;28;20211;-60
2022/01/07 09:07:01;;;;;;;17.60;10.97;;;;;;;10.33;95.50;99724.88;5069020;28;20223;-60
2022/01/07 09:09:27;;;;;;;23.13;10.60;;;;;;;10.52;94.78;99718.31;5071759;28;20212;-64
2022/01/07 09:11:55;;;;;;;19.07;10.13;;;;;;;10.73;93.36;99716.91;5072009;28;20605;-60
2022/01/07 09:14:21;;;;;;;39.40;11.93;;;;;;;10.77;92.77;99714.19;5071032;28;20227;-62
2022/01/07 09:16:49;;;;;;;42.93;11.83;;;;;;;10.84;92.33;99718.34;5071965;28;20704;-60
2022/01/07 09:19:15;;;;;;;21.13;10.43;;;;;;;10.77;91.91;99716.81;5070107;28;20779;-63
2022/01/07 09:21:43;;;;;;;15.17;8.97;;;;;;;10.83;90.92;99711.47;5072062;28;20228;-61
2022/01/07 09:24:11;;;;;;;13.97;9.23;;;;;;;10.82;90.71;99711.50;5071221;28;20230;-61
2022/01/07 09:26:38;;;;;;;11.13;8.33;;;;;;;10.86;90.49;99713.09;5071888;28;20299;-61
2022/01/07 09:29:05;;;;;;;14.20;8.73;;;;;;;10.77;89.85;99709.00;5071139;28;20226;-61
2022/01/07 09:31:33;;;;;;;18.23;8.87;;;;;;;10.72;89.94;99710.88;5071248;28;20324;-62
2022/01/07 09:34:01;;;;;;;12.13;7.90;;;;;;;10.79;90.47;99701.19;5071143;28;20317;-60
2022/01/07 09:36:28;;;;;;;16.23;8.33;;;;;;;10.96;90.08;99708.50;5070196;28;20270;-64
2022/01/07 09:38:55;;;;;;;8.60;7.37;;;;;;;10.94;89.33;99687.81;5070336;28;20220;-62
2022/01/07 09:41:23;;;;;;;12.37;7.90;;;;;;;10.88;89.41;99701.78;5071308;28;20224;-65
2022/01/07 09:43:50;;;;;;;12.17;7.83;;;;;;;10.89;89.87;99697.44;5071670;28;20218;-63
2022/01/07 09:46:18;;;;;;;12.40;7.83;;;;;;;10.91;89.54;99701.72;5070338;28;20222;-61
2022/01/07 09:48:46;;;;;;;17.67;8.90;;;;;;;10.97;89.24;99705.03;5071304;28;20224;-61
2022/01/07 09:51:15;;;;;;;19.83;8.53;;;;;;;11.08;88.50;99708.16;5070869;28;20219;-60
2022/01/07 09:53:42;;;;;;;13.40;7.80;;;;;;;11.06;88.31;99704.78;5071143;28;20310;-62
2022/01/07 09:56:09;;;;;;;13.03;8.30;;;;;;;11.08;89.00;99703.84;5070582;28;20232;-61
2022/01/07 09:58:38;;;;;;;9.63;8.33;;;;;;;11.14;88.29;99705.41;5071047;28;20228;-60
2022/01/07 10:01:09;;;;;;;11.67;8.13;;;;;;;11.19;88.56;99704.38;5070264;28;20219;-60
2022/01/07 10:03:40;;;;;;;8.57;7.40;;;;;;;11.31;88.34;99699.72;5070930;28;20227;-63
2022/01/07 10:06:19;;;;;;;13.33;8.40;;;;;;;11.31;88.17;99704.94;5070337;28;20238;-63
2022/01/07 10:08:47;;;;;;;17.87;11.63;;;;;;;11.25;88.81;99703.38;5070652;28;20223;-60
2022/01/07 10:11:18;;;;;;;11.27;9.50;;;;;;;11.21;89.04;99706.94;5070142;28;20230;-60
2022/01/07 10:13:47;;;;;;;13.03;9.10;;;;;;;11.33;89.16;99693.59;5070005;28;20216;-60
2022/01/07 10:16:16;;;;;;;10.67;8.97;;;;;;;11.32;89.47;99699.69;5070160;28;20254;-61
2022/01/07 10:18:43;;;;;;;14.27;8.43;;;;;;;11.04;89.87;99701.38;5070602;28;20688;-62
2022/01/07 10:21:12;;;;;;;13.70;9.33;;;;;;;11.08;90.41;99692.59;5069970;28;20220;-60
2022/01/07 10:23:40;;;;;;;14.70;8.80;;;;;;;11.18;89.75;99688.81;5070324;28;20589;-60
2022/01/07 10:26:15;;;;;;;11.50;7.97;;;;;;;11.17;90.11;99692.34;5069991;28;20299;-60
2022/01/07 10:28:43;;;;;;;13.30;8.93;;;;;;;11.16;89.96;99681.09;5069993;28;20605;-59
2022/01/07 10:31:19;;;;;;;13.90;8.60;;;;;;;11.05;90.31;99685.75;5069577;28;20215;-59
2022/01/07 10:33:48;;;;;;;11.17;8.43;;;;;;;10.93;91.26;99677.44;5070208;28;20219;-60
2022/01/07 10:36:18;;;;;;;11.60;8.37;;;;;;;10.94;91.43;99674.81;5069389;28;21387;-60
2022/01/07 10:38:50;;;;;;;9.33;8.07;;;;;;;11.03;90.36;99676.28;5070308;28;20220;-60
2022/01/07 10:41:18;;;;;;;9.97;7.73;;;;;;;11.04;90.62;99676.25;5069845;28;21178;-63
2022/01/07 10:43:45;;;;;;;12.17;8.30;;;;;;;10.94;91.55;99673.97;5069537;28;20227;-62
2022/01/07 10:46:20;;;;;;;13.57;8.93;;;;;;;10.88;91.86;99675.81;5049669;28;20722;-60
2022/01/07 10:48:53;;;;;;;15.20;8.17;;;;;;;10.87;92.42;99671.53;5049705;28;20203;-60
2022/01/07 10:51:24;;;;;;;13.57;8.50;;;;;;;10.94;92.00;99668.78;5050458;28;20192;-62
2022/01/07 10:53:53;;;;;;;9.27;8.13;;;;;;;10.79;92.78;99650.13;5050468;28;20201;-62
2022/01/07 10:56:21;;;;;;;12.00;7.67;;;;;;;10.94;92.48;99669.63;5050111;28;20216;-64
2022/01/07 10:59:07;;;;;;;10.60;9.07;;;;;;;10.94;92.87;99673.97;5050140;28;20203;-63
2022/01/07 11:01:41;;;;;;;11.87;8.43;;;;;;;11.07;92.37;99675.28;5050431;28;20595;-62
2022/01/07 11:04:10;;;;;;;9.57;8.30;;;;;;;11.05;92.28;99675.38;5050571;28;20641;-63
2022/01/07 11:06:38;;;;;;;8.53;7.70;;;;;;;11.08;91.89;99672.66;5050292;28;20192;-64
2022/01/07 11:09:10;;;;;;;11.47;8.17;;;;;;;11.01;91.79;99670.28;5050212;28;20219;-64
2022/01/07 11:11:47;;;;;;;10.10;9.07;;;;;;;11.06;92.37;99684.84;5049974;28;20287;-63
2022/01/07 11:14:18;;;;;;;16.23;11.60;;;;;;;11.05;92.10;99677.97;5050158;28;20215;-61
2022/01/07 11:16:47;;;;;;;26.80;17.87;;;;;;;10.96;92.65;99675.59;5049957;28;20306;-60
2022/01/07 11:19:19;;;;;;;16.17;11.60;;;;;;;11.01;92.26;99675.47;5049907;28;20275;-60
2022/01/07 11:21:49;;;;;;;11.57;10.03;;;;;;;10.99;92.74;99667.72;5049913;28;20258;-60
2022/01/07 11:24:44;;;;;;;15.03;9.57;;;;;;;11.06;92.41;99665.84;5050179;28;20664;-60
2022/01/07 11:27:12;;;;;;;10.70;8.10;;;;;;;11.14;92.04;99677.69;5025869;28;20200;-60
2022/01/07 11:29:42;;;;;;;9.53;8.50;;;;;;;11.16;91.74;99665.53;5049783;28;20204;-60
2022/01/07 11:32:33;;;;;;;10.53;8.47;;;;;;;11.14;91.65;99666.44;5049721;28;20232;-61
2022/01/07 11:35:47;;;;;;;14.00;9.30;;;;;;;11.16;91.34;99675.06;5049623;28;20193;-62